SWA2067 KCOS-KDAL
Flight info
| Callsign | SWA2067 |
|---|---|
| Flight time | 1h 37m |
| Altitude | 37000 |
| Route | BRK BRESH TBE J17 PNH KF27A STNLI JFRYE5 |
| Aircraft | B738/M-SADE2E3GIJ4RWZ/LB1D1 |
Departure
| Time | 2026-04-25 22:55 |
|---|---|
| Airport | City of Colorado Springs Municipal Airport (KCOS) |
Arrival
| Time | 2026-04-26 00:32 |
|---|---|
| Airport | Dallas Love Field (KDAL) |
| Time | Latitude | Longitude | Altitude | Speed | Heading |
|---|---|---|---|---|---|
| 2026-04-25 22:29 | 38.79996 | -104.70175 | 6193 ft | 0 kts | 112° |
| 2026-04-25 22:39 | 38.80001 | -104.70193 | 6190 ft | 4 kts | 102° |
| 2026-04-25 22:39 | 38.80000 | -104.70225 | 6190 ft | 4 kts | 63° |
| 2026-04-25 22:40 | 38.79984 | -104.70244 | 6193 ft | 3 kts | 5° |
| 2026-04-25 22:40 | 38.79980 | -104.70244 | 6193 ft | 1 kts | 1° |
| 2026-04-25 22:45 | 38.80002 | -104.70244 | 6192 ft | 6 kts | 1° |
| 2026-04-25 22:45 | 38.80048 | -104.70241 | 6193 ft | 7 kts | 14° |
| 2026-04-25 22:46 | 38.80074 | -104.70194 | 6193 ft | 7 kts | 83° |
| 2026-04-25 22:46 | 38.80079 | -104.70136 | 6193 ft | 7 kts | 83° |
| 2026-04-25 22:46 | 38.80121 | -104.70089 | 6192 ft | 12 kts | 12° |
| 2026-04-25 22:46 | 38.80206 | -104.70085 | 6193 ft | 12 kts | 0° |
| 2026-04-25 22:47 | 38.80288 | -104.70084 | 6193 ft | 12 kts | 0° |
| 2026-04-25 22:47 | 38.80358 | -104.70048 | 6193 ft | 12 kts | 66° |
| 2026-04-25 22:47 | 38.80361 | -104.69932 | 6193 ft | 14 kts | 90° |
| 2026-04-25 22:47 | 38.80361 | -104.69807 | 6193 ft | 14 kts | 90° |
| 2026-04-25 22:48 | 38.80361 | -104.69687 | 6193 ft | 13 kts | 90° |
| 2026-04-25 22:48 | 38.80361 | -104.69572 | 6193 ft | 13 kts | 90° |
| 2026-04-25 22:48 | 38.80361 | -104.69440 | 6193 ft | 16 kts | 90° |
| 2026-04-25 22:48 | 38.80360 | -104.69303 | 6193 ft | 15 kts | 90° |
| 2026-04-25 22:49 | 38.80361 | -104.69172 | 6193 ft | 14 kts | 90° |
| 2026-04-25 22:49 | 38.80361 | -104.69047 | 6193 ft | 14 kts | 90° |
| 2026-04-25 22:49 | 38.80360 | -104.68927 | 6193 ft | 13 kts | 90° |
| 2026-04-25 22:49 | 38.80371 | -104.68815 | 6193 ft | 13 kts | 51° |
| 2026-04-25 22:50 | 38.80471 | -104.68787 | 6193 ft | 17 kts | 0° |
| 2026-04-25 22:50 | 38.80584 | -104.68786 | 6193 ft | 16 kts | 360° |
| 2026-04-25 22:50 | 38.80695 | -104.68787 | 6192 ft | 15 kts | 360° |
| 2026-04-25 22:50 | 38.80800 | -104.68788 | 6192 ft | 15 kts | 360° |
| 2026-04-25 22:51 | 38.80901 | -104.68787 | 6192 ft | 14 kts | 1° |
| 2026-04-25 22:51 | 38.80998 | -104.68786 | 6192 ft | 14 kts | 0° |
| 2026-04-25 22:51 | 38.81091 | -104.68786 | 6192 ft | 13 kts | 360° |
| 2026-04-25 22:51 | 38.81180 | -104.68786 | 6193 ft | 13 kts | 360° |
| 2026-04-25 22:52 | 38.81277 | -104.68786 | 6193 ft | 17 kts | 360° |
| 2026-04-25 22:52 | 38.81396 | -104.68786 | 6193 ft | 17 kts | 0° |
| 2026-04-25 22:52 | 38.81511 | -104.68785 | 6193 ft | 16 kts | 0° |
| 2026-04-25 22:52 | 38.81582 | -104.68771 | 6193 ft | 13 kts | 36° |
| 2026-04-25 22:53 | 38.81601 | -104.68651 | 6195 ft | 10 kts | 87° |
| 2026-04-25 22:53 | 38.81592 | -104.68578 | 6194 ft | 5 kts | 133° |
| 2026-04-25 22:53 | 38.81559 | -104.68574 | 6195 ft | 5 kts | 186° |
| 2026-04-25 22:53 | 38.81553 | -104.68574 | 6195 ft | 0 kts | 180° |
| 2026-04-25 22:54 | 38.81546 | -104.68574 | 6195 ft | 5 kts | 180° |
| 2026-04-25 22:54 | 38.81309 | -104.68574 | 6194 ft | 67 kts | 180° |
| 2026-04-25 22:54 | 38.80626 | -104.68573 | 6191 ft | 127 kts | 180° |
| 2026-04-25 22:54 | 38.79595 | -104.68598 | 6367 ft | 160 kts | 180° |
| 2026-04-25 22:55 | 38.78455 | -104.68565 | 7127 ft | 164 kts | 164° |
| 2026-04-25 22:55 | 38.77437 | -104.67876 | 7735 ft | 178 kts | 136° |
| 2026-04-25 22:55 | 38.76803 | -104.66346 | 8047 ft | 217 kts | 111° |
| 2026-04-25 22:55 | 38.76456 | -104.64396 | 8522 ft | 226 kts | 107° |
| 2026-04-25 22:56 | 38.76107 | -104.62413 | 9132 ft | 232 kts | 114° |
| 2026-04-25 22:56 | 38.75251 | -104.60618 | 9394 ft | 245 kts | 139° |
| 2026-04-25 22:56 | 38.73982 | -104.59054 | 9740 ft | 263 kts | 142° |
| 2026-04-25 22:56 | 38.72554 | -104.57381 | 9963 ft | 289 kts | 144° |
| 2026-04-25 22:57 | 38.70989 | -104.55689 | 10295 ft | 311 kts | 144° |
| 2026-04-25 22:57 | 38.69234 | -104.53842 | 10651 ft | 330 kts | 144° |
| 2026-04-25 22:57 | 38.67436 | -104.51947 | 11324 ft | 336 kts | 144° |
| 2026-04-25 22:57 | 38.65652 | -104.50055 | 12135 ft | 340 kts | 144° |
| 2026-04-25 22:58 | 38.63808 | -104.48095 | 12817 ft | 348 kts | 144° |
| 2026-04-25 22:58 | 38.61935 | -104.46099 | 13559 ft | 353 kts | 144° |
| 2026-04-25 22:58 | 38.60033 | -104.44068 | 14273 ft | 357 kts | 144° |
| 2026-04-25 22:58 | 38.58119 | -104.42023 | 15051 ft | 359 kts | 143° |
| 2026-04-25 22:59 | 38.56197 | -104.39971 | 15773 ft | 362 kts | 143° |
| 2026-04-25 22:59 | 38.54261 | -104.37905 | 16565 ft | 364 kts | 143° |
| 2026-04-25 22:59 | 38.52306 | -104.35821 | 17300 ft | 367 kts | 143° |
| 2026-04-25 22:59 | 38.50365 | -104.33752 | 18028 ft | 370 kts | 143° |
| 2026-04-25 23:00 | 38.48380 | -104.31640 | 18648 ft | 374 kts | 143° |
| 2026-04-25 23:00 | 38.46370 | -104.29503 | 19223 ft | 378 kts | 143° |
| 2026-04-25 23:00 | 38.44336 | -104.27341 | 19815 ft | 382 kts | 143° |
| 2026-04-25 23:00 | 38.42282 | -104.25159 | 20404 ft | 386 kts | 143° |
| 2026-04-25 23:01 | 38.40206 | -104.22955 | 20981 ft | 390 kts | 144° |
| 2026-04-25 23:01 | 38.38108 | -104.20729 | 21603 ft | 393 kts | 144° |
| 2026-04-25 23:01 | 38.35996 | -104.18489 | 22159 ft | 398 kts | 144° |
| 2026-04-25 23:01 | 38.33856 | -104.16224 | 22713 ft | 402 kts | 144° |
| 2026-04-25 23:02 | 38.31683 | -104.13973 | 23260 ft | 403 kts | 148° |
| 2026-04-25 23:02 | 38.29307 | -104.12090 | 23709 ft | 402 kts | 159° |
| 2026-04-25 23:02 | 38.26734 | -104.10688 | 24104 ft | 404 kts | 163° |
| 2026-04-25 23:02 | 38.24105 | -104.09369 | 24489 ft | 408 kts | 164° |
| 2026-04-25 23:03 | 38.21438 | -104.08052 | 24881 ft | 413 kts | 165° |
| 2026-04-25 23:03 | 38.18750 | -104.06720 | 25285 ft | 417 kts | 165° |
| 2026-04-25 23:03 | 38.16034 | -104.05365 | 25690 ft | 421 kts | 165° |
| 2026-04-25 23:03 | 38.13294 | -104.03986 | 26076 ft | 425 kts | 165° |
| 2026-04-25 23:04 | 38.10531 | -104.02588 | 26469 ft | 429 kts | 165° |
| 2026-04-25 23:04 | 38.08688 | -104.01652 | 26733 ft | 431 kts | 165° |
| 2026-04-25 23:04 | 38.04973 | -103.99765 | 27246 ft | 436 kts | 166° |
| 2026-04-25 23:04 | 38.02141 | -103.98326 | 27602 ft | 440 kts | 166° |
| 2026-04-25 23:05 | 37.99288 | -103.96877 | 27968 ft | 444 kts | 166° |
| 2026-04-25 23:05 | 37.96413 | -103.95418 | 28343 ft | 447 kts | 166° |
| 2026-04-25 23:05 | 37.93508 | -103.93945 | 28696 ft | 450 kts | 167° |
| 2026-04-25 23:05 | 37.90595 | -103.92470 | 29068 ft | 453 kts | 167° |
| 2026-04-25 23:06 | 37.87655 | -103.90982 | 29418 ft | 455 kts | 167° |
| 2026-04-25 23:06 | 37.84697 | -103.89487 | 29773 ft | 458 kts | 167° |
| 2026-04-25 23:06 | 37.81730 | -103.87988 | 30068 ft | 461 kts | 167° |
| 2026-04-25 23:06 | 37.78741 | -103.86480 | 30323 ft | 464 kts | 167° |
| 2026-04-25 23:07 | 37.75736 | -103.84966 | 30575 ft | 467 kts | 167° |
| 2026-04-25 23:07 | 37.72707 | -103.83440 | 30850 ft | 469 kts | 167° |
| 2026-04-25 23:07 | 37.69672 | -103.81912 | 31123 ft | 471 kts | 167° |
| 2026-04-25 23:07 | 37.66613 | -103.80374 | 31377 ft | 474 kts | 168° |
| 2026-04-25 23:08 | 37.63580 | -103.78850 | 31606 ft | 476 kts | 168° |
| 2026-04-25 23:08 | 37.60488 | -103.77297 | 31840 ft | 478 kts | 168° |
| 2026-04-25 23:08 | 37.57383 | -103.75740 | 32054 ft | 481 kts | 168° |
| 2026-04-25 23:08 | 37.54263 | -103.74177 | 32275 ft | 483 kts | 168° |
| 2026-04-25 23:09 | 37.51134 | -103.72610 | 32544 ft | 484 kts | 168° |
| 2026-04-25 23:09 | 37.48009 | -103.71044 | 32933 ft | 483 kts | 168° |
| 2026-04-25 23:09 | 37.44896 | -103.69487 | 33237 ft | 483 kts | 168° |
| 2026-04-25 23:09 | 37.41756 | -103.67919 | 33495 ft | 485 kts | 168° |
| 2026-04-25 23:10 | 37.38613 | -103.66354 | 33701 ft | 487 kts | 168° |
| 2026-04-25 23:10 | 37.35464 | -103.64783 | 33972 ft | 487 kts | 168° |
| 2026-04-25 23:10 | 37.32313 | -103.63211 | 34277 ft | 486 kts | 168° |
| 2026-04-25 23:10 | 37.29178 | -103.61650 | 34573 ft | 485 kts | 168° |
| 2026-04-25 23:11 | 37.26070 | -103.59914 | 34795 ft | 494 kts | 161° |
| 2026-04-25 23:11 | 37.23124 | -103.57603 | 35025 ft | 507 kts | 152° |
| 2026-04-25 23:11 | 37.20320 | -103.54905 | 35303 ft | 508 kts | 150° |
| 2026-04-25 23:11 | 37.17587 | -103.52183 | 35571 ft | 508 kts | 149° |
| 2026-04-25 23:12 | 37.14833 | -103.49424 | 35808 ft | 507 kts | 149° |
| 2026-04-25 23:12 | 37.12063 | -103.46674 | 36067 ft | 506 kts | 149° |
| 2026-04-25 23:12 | 37.09298 | -103.43960 | 36329 ft | 504 kts | 150° |
| 2026-04-25 23:12 | 37.06528 | -103.41268 | 36616 ft | 502 kts | 150° |
| 2026-04-25 23:13 | 37.03762 | -103.38597 | 36773 ft | 503 kts | 150° |
| 2026-04-25 23:13 | 37.00977 | -103.35921 | 36756 ft | 505 kts | 150° |
| 2026-04-25 23:13 | 36.95424 | -103.30583 | 36741 ft | 501 kts | 150° |
| 2026-04-25 23:14 | 36.89918 | -103.25293 | 36736 ft | 498 kts | 150° |
| 2026-04-25 23:14 | 36.84434 | -103.20034 | 36737 ft | 496 kts | 150° |
| 2026-04-25 23:15 | 36.78968 | -103.14799 | 36736 ft | 494 kts | 150° |
| 2026-04-25 23:15 | 36.73558 | -103.09630 | 36756 ft | 493 kts | 150° |
| 2026-04-25 23:16 | 36.68092 | -103.04422 | 36778 ft | 494 kts | 150° |
| 2026-04-25 23:16 | 36.62615 | -102.99215 | 36789 ft | 496 kts | 150° |
| 2026-04-25 23:17 | 36.57115 | -102.93992 | 36794 ft | 498 kts | 150° |
| 2026-04-25 23:17 | 36.51588 | -102.88752 | 36796 ft | 500 kts | 150° |
| 2026-04-25 23:18 | 36.46033 | -102.83494 | 36779 ft | 503 kts | 150° |
| 2026-04-25 23:18 | 36.40490 | -102.78257 | 36747 ft | 504 kts | 150° |
| 2026-04-25 23:19 | 36.34904 | -102.72987 | 36722 ft | 505 kts | 150° |
| 2026-04-25 23:19 | 36.29315 | -102.67725 | 36744 ft | 505 kts | 150° |
| 2026-04-25 23:20 | 36.23713 | -102.62460 | 36769 ft | 504 kts | 150° |
| 2026-04-25 23:20 | 36.18128 | -102.57222 | 36793 ft | 503 kts | 150° |
| 2026-04-25 23:21 | 36.12590 | -102.52037 | 36817 ft | 501 kts | 151° |
| 2026-04-25 23:21 | 36.07028 | -102.46840 | 36833 ft | 500 kts | 151° |
| 2026-04-25 23:22 | 36.01473 | -102.41659 | 36818 ft | 500 kts | 151° |
| 2026-04-25 23:23 | 35.93151 | -102.33915 | 36782 ft | 499 kts | 151° |
| 2026-04-25 23:23 | 35.87607 | -102.28769 | 36768 ft | 499 kts | 151° |
| 2026-04-25 23:24 | 35.82095 | -102.23660 | 36781 ft | 499 kts | 151° |
| 2026-04-25 23:24 | 35.76538 | -102.18520 | 36795 ft | 499 kts | 151° |
| 2026-04-25 23:25 | 35.70982 | -102.13388 | 36784 ft | 500 kts | 151° |
| 2026-04-25 23:25 | 35.65410 | -102.08251 | 36779 ft | 501 kts | 151° |
| 2026-04-25 23:25 | 35.63567 | -102.06555 | 36650 ft | 501 kts | 151° |
| 2026-04-25 23:26 | 35.59831 | -102.03116 | 36703 ft | 500 kts | 152° |
| 2026-04-25 23:26 | 35.54268 | -101.98005 | 36711 ft | 499 kts | 152° |
| 2026-04-25 23:27 | 35.48730 | -101.92928 | 36709 ft | 500 kts | 152° |
| 2026-04-25 23:27 | 35.43148 | -101.87819 | 36754 ft | 501 kts | 152° |
| 2026-04-25 23:28 | 35.37554 | -101.82706 | 36782 ft | 502 kts | 152° |
| 2026-04-25 23:28 | 35.31952 | -101.77593 | 36808 ft | 502 kts | 152° |
| 2026-04-25 23:29 | 35.27282 | -101.73328 | 36822 ft | 504 kts | 149° |
| 2026-04-25 23:29 | 35.24660 | -101.70413 | 36819 ft | 515 kts | 140° |
| 2026-04-25 23:29 | 35.22354 | -101.67021 | 36828 ft | 523 kts | 131° |
| 2026-04-25 23:30 | 35.18220 | -101.57891 | 36816 ft | 530 kts | 121° |
| 2026-04-25 23:30 | 35.15463 | -101.51122 | 36778 ft | 531 kts | 120° |
| 2026-04-25 23:31 | 35.12130 | -101.43073 | 36740 ft | 530 kts | 121° |
| 2026-04-25 23:31 | 35.08747 | -101.35085 | 36707 ft | 529 kts | 121° |
| 2026-04-25 23:32 | 35.05343 | -101.27125 | 36681 ft | 529 kts | 121° |
| 2026-04-25 23:32 | 35.01954 | -101.19218 | 36673 ft | 528 kts | 121° |
| 2026-04-25 23:33 | 34.98550 | -101.11282 | 36677 ft | 528 kts | 121° |
| 2026-04-25 23:33 | 34.95137 | -101.03340 | 36672 ft | 528 kts | 122° |
| 2026-04-25 23:34 | 34.91725 | -100.95417 | 36667 ft | 528 kts | 122° |
| 2026-04-25 23:34 | 34.88305 | -100.87496 | 36655 ft | 527 kts | 122° |
| 2026-04-25 23:35 | 34.84883 | -100.79590 | 36653 ft | 527 kts | 122° |
| 2026-04-25 23:35 | 34.81483 | -100.71751 | 36652 ft | 527 kts | 122° |
| 2026-04-25 23:36 | 34.78030 | -100.63808 | 36645 ft | 527 kts | 122° |
| 2026-04-25 23:36 | 34.74618 | -100.55980 | 36648 ft | 528 kts | 122° |
| 2026-04-25 23:37 | 34.71171 | -100.48087 | 36653 ft | 528 kts | 122° |
| 2026-04-25 23:37 | 34.67719 | -100.40203 | 36659 ft | 528 kts | 122° |
| 2026-04-25 23:38 | 34.64258 | -100.32314 | 36675 ft | 529 kts | 122° |
| 2026-04-25 23:38 | 34.60798 | -100.24447 | 36687 ft | 529 kts | 122° |
| 2026-04-25 23:39 | 34.57345 | -100.16612 | 36684 ft | 529 kts | 122° |
| 2026-04-25 23:39 | 34.53868 | -100.08737 | 36680 ft | 529 kts | 122° |
| 2026-04-25 23:40 | 34.50508 | -100.00786 | 36652 ft | 533 kts | 115° |
| 2026-04-25 23:40 | 34.49300 | -99.96527 | 36646 ft | 535 kts | 104° |
| 2026-04-25 23:40 | 34.48541 | -99.92113 | 36652 ft | 534 kts | 101° |
| 2026-04-25 23:41 | 34.47224 | -99.83241 | 36620 ft | 535 kts | 100° |
| 2026-04-25 23:41 | 34.45860 | -99.74369 | 36624 ft | 534 kts | 101° |
| 2026-04-25 23:42 | 34.44434 | -99.65590 | 36625 ft | 534 kts | 101° |
| 2026-04-25 23:42 | 34.42979 | -99.56769 | 36640 ft | 534 kts | 101° |
| 2026-04-25 23:43 | 34.41527 | -99.47948 | 36642 ft | 534 kts | 101° |
| 2026-04-25 23:43 | 34.39607 | -99.39312 | 36623 ft | 529 kts | 121° |
| 2026-04-25 23:44 | 34.35938 | -99.31649 | 36633 ft | 526 kts | 125° |
| 2026-04-25 23:44 | 34.32152 | -99.24069 | 36640 ft | 526 kts | 124° |
| 2026-04-25 23:45 | 34.28433 | -99.16436 | 36431 ft | 530 kts | 123° |
| 2026-04-25 23:45 | 34.26572 | -99.12564 | 35867 ft | 532 kts | 123° |
| 2026-04-25 23:45 | 34.24719 | -99.08693 | 35277 ft | 531 kts | 123° |
| 2026-04-25 23:45 | 34.22868 | -99.04827 | 34642 ft | 532 kts | 123° |
| 2026-04-25 23:46 | 34.21016 | -99.00966 | 33982 ft | 532 kts | 123° |
| 2026-04-25 23:46 | 34.19175 | -98.97139 | 33232 ft | 534 kts | 123° |
| 2026-04-25 23:46 | 34.17308 | -98.93264 | 32474 ft | 534 kts | 123° |
| 2026-04-25 23:46 | 34.15439 | -98.89394 | 31768 ft | 533 kts | 123° |
| 2026-04-25 23:47 | 34.13581 | -98.85548 | 31275 ft | 527 kts | 123° |
| 2026-04-25 23:47 | 34.11742 | -98.81744 | 30755 ft | 522 kts | 123° |
| 2026-04-25 23:47 | 34.09919 | -98.77980 | 30261 ft | 517 kts | 123° |
| 2026-04-25 23:47 | 34.08113 | -98.74253 | 29776 ft | 512 kts | 123° |
| 2026-04-25 23:48 | 34.06321 | -98.70562 | 29202 ft | 507 kts | 123° |
| 2026-04-25 23:48 | 34.04551 | -98.66918 | 28668 ft | 501 kts | 123° |
| 2026-04-25 23:48 | 34.02800 | -98.63317 | 28156 ft | 495 kts | 123° |
| 2026-04-25 23:48 | 34.01070 | -98.59763 | 27636 ft | 489 kts | 123° |
| 2026-04-25 23:49 | 33.99378 | -98.56292 | 27153 ft | 484 kts | 123° |
| 2026-04-25 23:49 | 33.97681 | -98.52815 | 26626 ft | 479 kts | 123° |
| 2026-04-25 23:49 | 33.95978 | -98.49330 | 26105 ft | 474 kts | 123° |
| 2026-04-25 23:49 | 33.94336 | -98.45970 | 25634 ft | 468 kts | 123° |
| 2026-04-25 23:50 | 33.92690 | -98.42605 | 25134 ft | 464 kts | 123° |
| 2026-04-25 23:50 | 33.91055 | -98.39266 | 24705 ft | 460 kts | 123° |
| 2026-04-25 23:50 | 33.89437 | -98.35967 | 24206 ft | 456 kts | 123° |
| 2026-04-25 23:50 | 33.87828 | -98.32691 | 23693 ft | 453 kts | 123° |
| 2026-04-25 23:51 | 33.86230 | -98.29439 | 23170 ft | 449 kts | 123° |
| 2026-04-25 23:51 | 33.84656 | -98.26236 | 22589 ft | 438 kts | 122° |
| 2026-04-25 23:51 | 33.83126 | -98.23124 | 22088 ft | 426 kts | 123° |
| 2026-04-25 23:51 | 33.81623 | -98.20070 | 21624 ft | 422 kts | 123° |
| 2026-04-25 23:52 | 33.80151 | -98.17085 | 21148 ft | 418 kts | 123° |
| 2026-04-25 23:52 | 33.78672 | -98.14087 | 20685 ft | 415 kts | 123° |
| 2026-04-25 23:52 | 33.77202 | -98.11111 | 20214 ft | 412 kts | 123° |
| 2026-04-25 23:52 | 33.75745 | -98.08162 | 19753 ft | 409 kts | 123° |
| 2026-04-25 23:53 | 33.74296 | -98.05232 | 19313 ft | 407 kts | 122° |
| 2026-04-25 23:53 | 33.72855 | -98.02321 | 18867 ft | 404 kts | 122° |
| 2026-04-25 23:53 | 33.71418 | -97.99419 | 18421 ft | 402 kts | 122° |
| 2026-04-25 23:53 | 33.69991 | -97.96540 | 17964 ft | 401 kts | 122° |
| 2026-04-25 23:54 | 33.68566 | -97.93667 | 17452 ft | 399 kts | 123° |
| 2026-04-25 23:54 | 33.67158 | -97.90829 | 17188 ft | 391 kts | 123° |
| 2026-04-25 23:54 | 33.65773 | -97.88041 | 16793 ft | 387 kts | 123° |
| 2026-04-25 23:54 | 33.64399 | -97.85277 | 16366 ft | 384 kts | 123° |
| 2026-04-25 23:55 | 33.63034 | -97.82533 | 15940 ft | 382 kts | 123° |
| 2026-04-25 23:55 | 33.61676 | -97.79805 | 15517 ft | 380 kts | 123° |
| 2026-04-25 23:55 | 33.60326 | -97.77096 | 15094 ft | 378 kts | 123° |
| 2026-04-25 23:55 | 33.58980 | -97.74399 | 14670 ft | 376 kts | 123° |
| 2026-04-25 23:56 | 33.57638 | -97.71713 | 14240 ft | 375 kts | 123° |
| 2026-04-25 23:56 | 33.56303 | -97.69040 | 13811 ft | 374 kts | 123° |
| 2026-04-25 23:56 | 33.54968 | -97.66371 | 13347 ft | 373 kts | 124° |
| 2026-04-25 23:56 | 33.53634 | -97.63703 | 12883 ft | 371 kts | 124° |
| 2026-04-25 23:57 | 33.52310 | -97.61057 | 12447 ft | 369 kts | 124° |
| 2026-04-25 23:57 | 33.50991 | -97.58424 | 12021 ft | 367 kts | 124° |
| 2026-04-25 23:57 | 33.49681 | -97.55809 | 11609 ft | 365 kts | 124° |
| 2026-04-25 23:57 | 33.48386 | -97.53225 | 11392 ft | 357 kts | 124° |
| 2026-04-25 23:58 | 33.47141 | -97.50742 | 11225 ft | 348 kts | 124° |
| 2026-04-25 23:58 | 33.45912 | -97.48292 | 11080 ft | 339 kts | 123° |
| 2026-04-25 23:58 | 33.45042 | -97.45709 | 10996 ft | 333 kts | 102° |
| 2026-04-25 23:58 | 33.44828 | -97.42975 | 11015 ft | 328 kts | 94° |
| 2026-04-25 23:59 | 33.44734 | -97.40281 | 10996 ft | 318 kts | 94° |
| 2026-04-25 23:59 | 33.44664 | -97.37688 | 11000 ft | 305 kts | 94° |
| 2026-04-25 23:59 | 33.44595 | -97.35201 | 11001 ft | 293 kts | 94° |
| 2026-04-25 23:59 | 33.44520 | -97.32780 | 11016 ft | 293 kts | 94° |
| 2026-04-26 00:00 | 33.44462 | -97.31115 | 11052 ft | 312 kts | 94° |
| 2026-04-26 00:00 | 33.44331 | -97.27484 | 11045 ft | 333 kts | 94° |
| 2026-04-26 00:00 | 33.44229 | -97.24698 | 11032 ft | 335 kts | 94° |
| 2026-04-26 00:00 | 33.44126 | -97.21922 | 11013 ft | 333 kts | 95° |
| 2026-04-26 00:01 | 33.44022 | -97.19188 | 11011 ft | 332 kts | 95° |
| 2026-04-26 00:01 | 33.43916 | -97.16433 | 11022 ft | 331 kts | 95° |
| 2026-04-26 00:01 | 33.43809 | -97.13680 | 11033 ft | 330 kts | 95° |
| 2026-04-26 00:01 | 33.43701 | -97.10935 | 11036 ft | 330 kts | 95° |
| 2026-04-26 00:02 | 33.43592 | -97.08187 | 11040 ft | 331 kts | 95° |
| 2026-04-26 00:02 | 33.43482 | -97.05432 | 11041 ft | 331 kts | 95° |
| 2026-04-26 00:02 | 33.43372 | -97.02676 | 11037 ft | 332 kts | 95° |
| 2026-04-26 00:02 | 33.43261 | -96.99914 | 11035 ft | 332 kts | 95° |
| 2026-04-26 00:03 | 33.43149 | -96.97144 | 11033 ft | 332 kts | 95° |
| 2026-04-26 00:03 | 33.43036 | -96.94384 | 11039 ft | 332 kts | 95° |
| 2026-04-26 00:03 | 33.42771 | -96.91659 | 11021 ft | 327 kts | 110° |
| 2026-04-26 00:03 | 33.41834 | -96.89227 | 11056 ft | 320 kts | 124° |
| 2026-04-26 00:04 | 33.40726 | -96.86915 | 11044 ft | 320 kts | 124° |
| 2026-04-26 00:04 | 33.39615 | -96.84604 | 11039 ft | 320 kts | 124° |
| 2026-04-26 00:04 | 33.38467 | -96.82330 | 11031 ft | 316 kts | 134° |
| 2026-04-26 00:04 | 33.36882 | -96.80679 | 11026 ft | 301 kts | 154° |
| 2026-04-26 00:05 | 33.35176 | -96.79206 | 10860 ft | 303 kts | 147° |
| 2026-04-26 00:05 | 33.33552 | -96.77602 | 10533 ft | 303 kts | 146° |
| 2026-04-26 00:05 | 33.31940 | -96.75978 | 10189 ft | 304 kts | 146° |
| 2026-04-26 00:05 | 33.30320 | -96.74360 | 9902 ft | 300 kts | 149° |
| 2026-04-26 00:06 | 33.28646 | -96.72901 | 9624 ft | 297 kts | 151° |
| 2026-04-26 00:06 | 33.26958 | -96.71491 | 9283 ft | 295 kts | 151° |
| 2026-04-26 00:06 | 33.25285 | -96.70105 | 9090 ft | 292 kts | 152° |
| 2026-04-26 00:06 | 33.23604 | -96.68716 | 9058 ft | 295 kts | 152° |
| 2026-04-26 00:07 | 33.21923 | -96.67326 | 9042 ft | 293 kts | 152° |
| 2026-04-26 00:07 | 33.20245 | -96.65937 | 9036 ft | 293 kts | 151° |
| 2026-04-26 00:07 | 33.18574 | -96.64557 | 9028 ft | 292 kts | 151° |
| 2026-04-26 00:07 | 33.16827 | -96.63379 | 9020 ft | 284 kts | 169° |
| 2026-04-26 00:08 | 33.14924 | -96.63180 | 9041 ft | 271 kts | 194° |
| 2026-04-26 00:08 | 33.13222 | -96.64024 | 9033 ft | 264 kts | 220° |
| 2026-04-26 00:08 | 33.12084 | -96.65704 | 9032 ft | 263 kts | 246° |
| 2026-04-26 00:08 | 33.11763 | -96.67846 | 9044 ft | 268 kts | 271° |
| 2026-04-26 00:09 | 33.12327 | -96.69958 | 9039 ft | 279 kts | 296° |
| 2026-04-26 00:09 | 33.13712 | -96.71637 | 9040 ft | 286 kts | 321° |
| 2026-04-26 00:09 | 33.15421 | -96.72776 | 9024 ft | 283 kts | 326° |
| 2026-04-26 00:09 | 33.17169 | -96.73819 | 9028 ft | 279 kts | 327° |
| 2026-04-26 00:10 | 33.18914 | -96.74831 | 9037 ft | 279 kts | 327° |
| 2026-04-26 00:10 | 33.20666 | -96.75843 | 9035 ft | 280 kts | 327° |
| 2026-04-26 00:10 | 33.22423 | -96.76852 | 9037 ft | 281 kts | 327° |
| 2026-04-26 00:10 | 33.24183 | -96.77864 | 9041 ft | 281 kts | 328° |
| 2026-04-26 00:11 | 33.25945 | -96.78881 | 9033 ft | 281 kts | 328° |
| 2026-04-26 00:11 | 33.27708 | -96.79900 | 9044 ft | 281 kts | 328° |
| 2026-04-26 00:11 | 33.29467 | -96.80918 | 9037 ft | 281 kts | 328° |
| 2026-04-26 00:11 | 33.31231 | -96.81941 | 9029 ft | 281 kts | 328° |
| 2026-04-26 00:12 | 33.32986 | -96.82965 | 9037 ft | 280 kts | 328° |
| 2026-04-26 00:12 | 33.34735 | -96.83990 | 9046 ft | 280 kts | 327° |
| 2026-04-26 00:12 | 33.36486 | -96.85016 | 9038 ft | 279 kts | 328° |
| 2026-04-26 00:12 | 33.38275 | -96.85871 | 9035 ft | 284 kts | 339° |
| 2026-04-26 00:13 | 33.40207 | -96.86406 | 9042 ft | 286 kts | 342° |
| 2026-04-26 00:13 | 33.42153 | -96.86891 | 9035 ft | 286 kts | 342° |
| 2026-04-26 00:13 | 33.44103 | -96.87368 | 9038 ft | 286 kts | 342° |
| 2026-04-26 00:13 | 33.46052 | -96.87845 | 9039 ft | 286 kts | 342° |
| 2026-04-26 00:14 | 33.48001 | -96.88319 | 9036 ft | 286 kts | 342° |
| 2026-04-26 00:14 | 33.49950 | -96.88793 | 9029 ft | 286 kts | 342° |
| 2026-04-26 00:14 | 33.51899 | -96.89267 | 9032 ft | 285 kts | 342° |
| 2026-04-26 00:14 | 33.53847 | -96.89740 | 9032 ft | 285 kts | 342° |
| 2026-04-26 00:15 | 33.55790 | -96.90210 | 9032 ft | 284 kts | 342° |
| 2026-04-26 00:15 | 33.57730 | -96.90676 | 9039 ft | 284 kts | 342° |
| 2026-04-26 00:15 | 33.59018 | -96.90986 | 9031 ft | 284 kts | 342° |
| 2026-04-26 00:15 | 33.61583 | -96.91602 | 9028 ft | 284 kts | 342° |
| 2026-04-26 00:16 | 33.63517 | -96.92070 | 9024 ft | 282 kts | 341° |
| 2026-04-26 00:16 | 33.65245 | -96.93018 | 9026 ft | 268 kts | 314° |
| 2026-04-26 00:16 | 33.66346 | -96.94735 | 9025 ft | 256 kts | 288° |
| 2026-04-26 00:16 | 33.66603 | -96.96787 | 8965 ft | 248 kts | 261° |
| 2026-04-26 00:17 | 33.65992 | -96.98694 | 8731 ft | 247 kts | 234° |
| 2026-04-26 00:17 | 33.65155 | -96.99668 | 8464 ft | 252 kts | 217° |
| 2026-04-26 00:17 | 33.63616 | -97.00647 | 8146 ft | 255 kts | 209° |
| 2026-04-26 00:17 | 33.62004 | -97.01532 | 7855 ft | 254 kts | 208° |
| 2026-04-26 00:18 | 33.60395 | -97.02404 | 7566 ft | 253 kts | 207° |
| 2026-04-26 00:18 | 33.58792 | -97.03276 | 7271 ft | 253 kts | 207° |
| 2026-04-26 00:18 | 33.57199 | -97.04153 | 7041 ft | 250 kts | 207° |
| 2026-04-26 00:18 | 33.55624 | -97.05028 | 6728 ft | 251 kts | 208° |
| 2026-04-26 00:19 | 33.54051 | -97.05910 | 6484 ft | 248 kts | 207° |
| 2026-04-26 00:19 | 33.52498 | -97.06787 | 6219 ft | 246 kts | 207° |
| 2026-04-26 00:19 | 33.50952 | -97.07663 | 5942 ft | 245 kts | 207° |
| 2026-04-26 00:19 | 33.49422 | -97.08544 | 5666 ft | 244 kts | 207° |
| 2026-04-26 00:20 | 33.47900 | -97.09431 | 5402 ft | 242 kts | 207° |
| 2026-04-26 00:20 | 33.46419 | -97.10319 | 5114 ft | 241 kts | 208° |
| 2026-04-26 00:20 | 33.44917 | -97.11226 | 4844 ft | 241 kts | 207° |
| 2026-04-26 00:20 | 33.43434 | -97.12131 | 4579 ft | 239 kts | 207° |
| 2026-04-26 00:21 | 33.41950 | -97.13043 | 4249 ft | 240 kts | 207° |
| 2026-04-26 00:21 | 33.40362 | -97.13595 | 3994 ft | 241 kts | 182° |
| 2026-04-26 00:21 | 33.38695 | -97.13386 | 3738 ft | 241 kts | 174° |
| 2026-04-26 00:21 | 33.37041 | -97.13048 | 3540 ft | 241 kts | 173° |
| 2026-04-26 00:22 | 33.35383 | -97.12698 | 3515 ft | 244 kts | 173° |
| 2026-04-26 00:22 | 33.33716 | -97.12347 | 3508 ft | 243 kts | 173° |
| 2026-04-26 00:22 | 33.32058 | -97.12002 | 3488 ft | 240 kts | 172° |
| 2026-04-26 00:22 | 33.30415 | -97.11669 | 3505 ft | 239 kts | 173° |
| 2026-04-26 00:23 | 33.28770 | -97.11324 | 3487 ft | 239 kts | 172° |
| 2026-04-26 00:23 | 33.27139 | -97.10985 | 3475 ft | 236 kts | 173° |
| 2026-04-26 00:23 | 33.25505 | -97.10645 | 3500 ft | 242 kts | 173° |
| 2026-04-26 00:23 | 33.23837 | -97.10294 | 3483 ft | 243 kts | 173° |
| 2026-04-26 00:24 | 33.22180 | -97.09943 | 3491 ft | 240 kts | 173° |
| 2026-04-26 00:24 | 33.20541 | -97.09595 | 3480 ft | 239 kts | 173° |
| 2026-04-26 00:24 | 33.18919 | -97.09234 | 3492 ft | 236 kts | 168° |
| 2026-04-26 00:24 | 33.17471 | -97.08293 | 3502 ft | 242 kts | 146° |
| 2026-04-26 00:25 | 33.16175 | -97.06951 | 3498 ft | 251 kts | 143° |
| 2026-04-26 00:25 | 33.14865 | -97.05551 | 3489 ft | 252 kts | 143° |
| 2026-04-26 00:25 | 33.13565 | -97.04155 | 3491 ft | 250 kts | 142° |
| 2026-04-26 00:25 | 33.12280 | -97.02782 | 3500 ft | 247 kts | 143° |
| 2026-04-26 00:26 | 33.11019 | -97.01433 | 3497 ft | 246 kts | 143° |
| 2026-04-26 00:26 | 33.09748 | -97.00068 | 3489 ft | 246 kts | 143° |
| 2026-04-26 00:26 | 33.08481 | -96.98704 | 3496 ft | 245 kts | 142° |
| 2026-04-26 00:26 | 33.07212 | -96.97341 | 3508 ft | 245 kts | 143° |
| 2026-04-26 00:27 | 33.05941 | -96.95981 | 3496 ft | 246 kts | 142° |
| 2026-04-26 00:27 | 33.04670 | -96.94621 | 3508 ft | 245 kts | 142° |
| 2026-04-26 00:27 | 33.03392 | -96.93264 | 3496 ft | 245 kts | 142° |
| 2026-04-26 00:27 | 33.02118 | -96.91943 | 3487 ft | 237 kts | 149° |
| 2026-04-26 00:28 | 33.00652 | -96.91355 | 3505 ft | 216 kts | 177° |
| 2026-04-26 00:28 | 32.99200 | -96.91199 | 3455 ft | 206 kts | 176° |
| 2026-04-26 00:28 | 32.97739 | -96.91045 | 3100 ft | 210 kts | 184° |
| 2026-04-26 00:28 | 32.96312 | -96.91139 | 3021 ft | 200 kts | 184° |
| 2026-04-26 00:29 | 32.94947 | -96.91200 | 3003 ft | 193 kts | 183° |
| 2026-04-26 00:29 | 32.93611 | -96.91246 | 2998 ft | 190 kts | 183° |
| 2026-04-26 00:29 | 32.92327 | -96.91282 | 3016 ft | 178 kts | 183° |
| 2026-04-26 00:29 | 32.91115 | -96.91326 | 2671 ft | 182 kts | 183° |
| 2026-04-26 00:30 | 32.89942 | -96.90805 | 2223 ft | 189 kts | 140° |
| 2026-04-26 00:30 | 32.89102 | -96.89576 | 1761 ft | 191 kts | 133° |
| 2026-04-26 00:30 | 32.88163 | -96.88472 | 1326 ft | 187 kts | 142° |
| 2026-04-26 00:30 | 32.87205 | -96.87452 | 994 ft | 179 kts | 137° |
| 2026-04-26 00:31 | 32.86402 | -96.86448 | 748 ft | 159 kts | 136° |
| 2026-04-26 00:31 | 32.85654 | -96.85597 | 569 ft | 136 kts | 136° |
| 2026-04-26 00:31 | 32.85045 | -96.84890 | 490 ft | 110 kts | 137° |
| 2026-04-26 00:31 | 32.84641 | -96.84422 | 489 ft | 51 kts | 136° |
| 2026-04-26 00:32 | 32.84479 | -96.84251 | 486 ft | 12 kts | 174° |
| 2026-04-26 00:32 | 32.84416 | -96.84313 | 479 ft | 14 kts | 256° |
| 2026-04-26 00:32 | 32.84531 | -96.84473 | 484 ft | 13 kts | 316° |
| 2026-04-26 00:33 | 32.84575 | -96.84549 | 476 ft | 11 kts | 257° |
| 2026-04-26 00:33 | 32.84525 | -96.84619 | 477 ft | 11 kts | 232° |
| 2026-04-26 00:33 | 32.84516 | -96.84635 | 481 ft | 3 kts | 236° |
| 2026-04-26 00:33 | 32.84509 | -96.84696 | 477 ft | 9 kts | 270° |
| 2026-04-26 00:34 | 32.84509 | -96.84771 | 481 ft | 9 kts | 270° |
| 2026-04-26 00:34 | 32.84509 | -96.84846 | 477 ft | 8 kts | 270° |
| 2026-04-26 00:34 | 32.84537 | -96.84875 | 481 ft | 5 kts | 357° |
| 2026-04-26 00:34 | 32.84556 | -96.84876 | 480 ft | 2 kts | 358° |
| 2026-04-26 00:35 | 32.84567 | -96.84876 | 480 ft | 0 kts | 358° |